createdAt,value
2018-01-16T00:01:30.795Z,16.47
2018-01-16T00:03:58.332Z,15.47
2018-01-16T00:06:25.855Z,17.02
2018-01-16T00:08:53.400Z,16.47
2018-01-16T00:11:20.967Z,17.33
2018-01-16T00:13:49.040Z,15.73
2018-01-16T00:16:16.592Z,16.17
2018-01-16T00:18:44.968Z,17.73
2018-01-16T00:21:13.275Z,17.40
2018-01-16T00:23:40.798Z,17.90
2018-01-16T00:26:09.329Z,16.60
2018-01-16T00:28:37.648Z,17.70
2018-01-16T00:31:05.190Z,18.00
2018-01-16T00:33:32.714Z,18.10
2018-01-16T00:36:00.233Z,17.70
2018-01-16T00:38:28.541Z,16.62
2018-01-16T00:40:56.073Z,18.30
2018-01-16T00:43:24.716Z,18.33
2018-01-16T00:45:52.255Z,17.23
2018-01-16T00:48:19.840Z,16.50
2018-01-16T00:50:47.402Z,17.37
2018-01-16T00:53:14.964Z,17.43
2018-01-16T00:55:42.502Z,16.60
2018-01-16T00:58:10.026Z,16.70
2018-01-16T01:00:37.574Z,15.80
2018-01-16T01:03:05.090Z,16.43
2018-01-16T01:05:32.663Z,17.73
2018-01-16T01:08:00.180Z,16.20
2018-01-16T01:10:27.719Z,16.93
2018-01-16T01:12:55.251Z,16.10
2018-01-16T01:15:22.829Z,18.73
2018-01-16T01:17:50.391Z,17.30
2018-01-16T01:20:18.237Z,18.20
2018-01-16T01:22:45.883Z,17.70
2018-01-16T01:25:13.406Z,17.60
2018-01-16T01:27:40.957Z,18.20
2018-01-16T01:30:08.468Z,18.50
2018-01-16T01:32:36.015Z,18.10
2018-01-16T01:35:03.564Z,17.83
2018-01-16T01:37:31.112Z,19.40
2018-01-16T01:39:58.623Z,19.77
2018-01-16T01:42:26.949Z,18.70
2018-01-16T01:44:54.475Z,18.30
2018-01-16T01:47:22.008Z,17.70
2018-01-16T01:49:49.535Z,17.33
2018-01-16T01:52:17.072Z,19.57
2018-01-16T01:54:45.373Z,16.20
2018-01-16T01:57:12.896Z,16.80
2018-01-16T01:59:40.412Z,17.30
2018-01-16T02:02:07.952Z,18.10
2018-01-16T02:04:35.488Z,16.40
2018-01-16T02:07:03.044Z,15.35
2018-01-16T02:09:31.512Z,15.90
2018-01-16T02:11:59.023Z,15.03
2018-01-16T02:14:26.549Z,15.27
2018-01-16T02:16:54.099Z,15.90
2018-01-16T02:19:21.761Z,16.33
2018-01-16T02:21:49.598Z,16.00
2018-01-16T02:24:17.175Z,15.97
2018-01-16T02:26:44.702Z,16.27
2018-01-16T02:29:12.231Z,16.27
2018-01-16T02:31:39.761Z,16.62
2018-01-16T02:34:07.338Z,16.27
2018-01-16T02:36:34.857Z,17.17
2018-01-16T02:39:02.393Z,17.63
2018-01-16T02:41:29.917Z,14.70
2018-01-16T02:43:57.492Z,16.20
2018-01-16T02:46:25.045Z,15.80
2018-01-16T02:48:52.564Z,15.30
2018-01-16T02:51:20.179Z,14.30
2018-01-16T02:53:47.735Z,14.83
2018-01-16T02:56:16.354Z,15.07
2018-01-16T02:58:44.676Z,12.97
2018-01-16T03:01:12.252Z,15.07
2018-01-16T03:03:39.771Z,13.55
2018-01-16T03:06:07.377Z,14.07
2018-01-16T03:08:34.900Z,14.02
2018-01-16T03:11:02.432Z,13.60
2018-01-16T03:13:29.952Z,13.57
2018-01-16T03:15:57.484Z,14.90
2018-01-16T03:18:25.043Z,12.63
2018-01-16T03:20:52.585Z,14.23
2018-01-16T03:23:20.200Z,13.37
2018-01-16T03:25:48.496Z,13.40
2018-01-16T03:28:16.049Z,12.90
2018-01-16T03:30:43.570Z,13.13
2018-01-16T03:33:11.150Z,12.70
2018-01-16T03:35:38.672Z,12.17
2018-01-16T03:38:06.214Z,12.57
2018-01-16T03:40:33.732Z,12.27
2018-01-16T03:43:02.052Z,12.00
2018-01-16T03:45:29.571Z,12.87
2018-01-16T03:47:57.100Z,12.67
2018-01-16T03:50:24.637Z,11.87
2018-01-16T03:52:52.175Z,11.70
2018-01-16T03:55:19.714Z,12.10
2018-01-16T03:57:48.033Z,10.70
2018-01-16T04:00:15.680Z,11.63
2018-01-16T04:02:43.301Z,12.10
2018-01-16T04:05:10.840Z,11.80
2018-01-16T04:07:38.361Z,9.90
2018-01-16T04:10:06.684Z,10.50
2018-01-16T04:12:34.205Z,9.87
2018-01-16T04:15:01.744Z,10.93
2018-01-16T04:17:30.288Z,10.65
2018-01-16T04:19:57.867Z,10.90
2018-01-16T04:22:25.388Z,10.60
2018-01-16T04:24:52.916Z,10.23
2018-01-16T04:27:21.340Z,10.43
2018-01-16T04:29:48.990Z,11.10
2018-01-16T04:32:16.516Z,11.10
2018-01-16T04:34:44.058Z,10.40
2018-01-16T04:37:11.594Z,9.93
2018-01-16T04:39:39.177Z,10.27
2018-01-16T04:42:07.465Z,10.10
2018-01-16T04:44:35.057Z,11.70
2018-01-16T04:47:02.576Z,11.35
2018-01-16T04:49:31.576Z,10.88
2018-01-16T04:51:59.245Z,11.60
2018-01-16T04:54:26.771Z,11.05
2018-01-16T04:56:54.308Z,11.43
2018-01-16T04:59:21.823Z,11.10
2018-01-16T05:01:49.427Z,10.50
2018-01-16T05:04:16.970Z,10.70
2018-01-16T05:06:44.513Z,10.57
2018-01-16T05:09:12.032Z,10.70
2018-01-16T05:11:39.578Z,10.40
2018-01-16T05:14:07.099Z,10.50
2018-01-16T05:16:34.649Z,10.87
2018-01-16T05:19:02.159Z,10.50
2018-01-16T05:21:30.460Z,10.18
2018-01-16T05:23:57.981Z,10.17
2018-01-16T05:26:25.537Z,10.37
2018-01-16T05:28:53.072Z,10.53
2018-01-16T05:31:20.623Z,9.57
2018-01-16T05:33:48.189Z,11.00
2018-01-16T05:36:15.845Z,10.47
2018-01-16T05:38:43.490Z,9.60
2018-01-16T05:41:11.020Z,10.93
2018-01-16T05:43:38.552Z,9.90
2018-01-16T05:46:06.617Z,10.13
2018-01-16T05:48:34.170Z,9.93
2018-01-16T05:51:01.692Z,10.07
2018-01-16T05:53:29.227Z,9.93
2018-01-16T05:55:56.756Z,8.97
2018-01-16T05:58:25.089Z,9.67
2018-01-16T06:00:52.622Z,10.33
2018-01-16T06:03:20.157Z,9.50
2018-01-16T06:05:47.820Z,10.23
2018-01-16T06:08:15.344Z,9.30
2018-01-16T06:10:42.891Z,9.93
2018-01-16T06:13:10.431Z,9.17
2018-01-16T06:15:37.968Z,9.10
2018-01-16T06:18:05.493Z,9.93
2018-01-16T06:20:33.030Z,9.30
2018-01-16T06:23:01.333Z,10.27
2018-01-16T06:25:28.875Z,9.10
2018-01-16T06:27:56.392Z,9.80
2018-01-16T06:30:24.024Z,8.63
2018-01-16T06:32:51.701Z,9.27
2018-01-16T06:35:19.300Z,9.50
2018-01-16T06:37:47.584Z,9.90
2018-01-16T06:40:15.267Z,9.30
2018-01-16T06:42:42.799Z,9.07
2018-01-16T06:45:10.325Z,9.00
2018-01-16T06:47:37.849Z,8.20
2018-01-16T06:50:06.144Z,10.13
2018-01-16T06:52:34.728Z,9.68
2018-01-16T06:55:02.257Z,10.90
2018-01-16T06:57:29.817Z,9.97
2018-01-16T06:59:57.332Z,8.93
2018-01-16T07:02:24.981Z,9.60
2018-01-16T07:04:52.573Z,9.73
2018-01-16T07:07:20.168Z,9.33
2018-01-16T07:09:47.709Z,10.40
2018-01-16T07:12:15.280Z,9.63
2018-01-16T07:14:42.830Z,9.67
2018-01-16T07:17:10.393Z,9.80
2018-01-16T07:19:37.904Z,9.20
2018-01-16T07:22:05.440Z,10.50
2018-01-16T07:24:32.961Z,10.00
2018-01-16T07:27:01.265Z,10.10
2018-01-16T07:29:28.793Z,9.43
2018-01-16T07:31:56.325Z,10.00
2018-01-16T07:34:23.864Z,9.30
2018-01-16T07:36:52.158Z,10.60
2018-01-16T07:39:19.811Z,9.30
2018-01-16T07:41:47.372Z,9.60
2018-01-16T07:44:14.920Z,9.40
2018-01-16T07:46:42.457Z,8.32
2018-01-16T07:49:09.982Z,8.60
2018-01-16T07:51:37.496Z,9.33
2018-01-16T07:54:05.800Z,8.33
2018-01-16T07:56:33.323Z,8.37
2018-01-16T07:59:00.880Z,9.33
2018-01-16T08:01:28.396Z,9.60
2018-01-16T08:03:55.924Z,8.27
2018-01-16T08:06:24.213Z,8.07
2018-01-16T08:08:51.882Z,8.50
2018-01-16T08:11:19.444Z,8.10
2018-01-16T08:13:47.002Z,7.90
2018-01-16T08:16:15.284Z,7.70
2018-01-16T08:18:43.592Z,9.10
2018-01-16T08:21:11.148Z,7.30
2018-01-16T08:23:38.664Z,8.20
2018-01-16T08:26:06.530Z,7.50
2018-01-16T08:28:34.077Z,7.53
2018-01-16T08:31:01.616Z,6.80
2018-01-16T08:33:29.180Z,6.47
2018-01-16T08:35:56.720Z,6.27
2018-01-16T08:38:24.232Z,6.47
2018-01-16T08:40:51.917Z,6.53
2018-01-16T08:43:19.437Z,6.80
2018-01-16T08:45:46.981Z,7.30
2018-01-16T08:48:14.499Z,6.53
2018-01-16T08:50:42.044Z,7.78
2018-01-16T08:53:09.622Z,7.40
2018-01-16T08:55:37.968Z,6.87
2018-01-16T08:58:05.485Z,6.20
2018-01-16T09:00:33.793Z,6.50
2018-01-16T09:03:01.343Z,6.18
2018-01-16T09:05:28.981Z,6.60
2018-01-16T09:07:56.524Z,6.23
2018-01-16T09:10:24.172Z,6.27
2018-01-16T09:12:51.701Z,6.17
2018-01-16T09:15:19.697Z,6.30
2018-01-16T09:17:47.344Z,5.97
2018-01-16T09:20:14.855Z,6.50
2018-01-16T09:22:42.388Z,6.43
2018-01-16T09:25:09.907Z,5.93
2018-01-16T09:27:39.128Z,6.43
2018-01-16T09:30:06.677Z,6.30
2018-01-16T09:32:34.214Z,6.17
2018-01-16T09:35:01.757Z,6.93
2018-01-16T09:37:29.314Z,6.93
2018-01-16T09:39:56.849Z,5.90
2018-01-16T09:42:24.381Z,6.00
2018-01-16T09:44:51.901Z,5.80
2018-01-16T09:47:20.279Z,6.00
2018-01-16T09:49:47.809Z,5.70
2018-01-16T09:52:15.344Z,5.33
2018-01-16T09:54:43.623Z,5.20
2018-01-16T09:57:11.164Z,4.65
2018-01-16T09:59:39.225Z,4.27
2018-01-16T10:02:06.749Z,4.10
2018-01-16T10:04:35.060Z,4.10
2018-01-16T10:07:02.574Z,4.70
2018-01-16T10:09:30.108Z,4.07
2018-01-16T10:11:58.567Z,4.15
2018-01-16T10:14:26.873Z,3.80
2018-01-16T10:16:54.429Z,4.10
2018-01-16T10:19:22.148Z,4.47
2018-01-16T10:21:49.669Z,7.60
2018-01-16T10:24:17.964Z,5.20
2018-01-16T10:26:45.481Z,4.67
2018-01-16T10:29:18.635Z,4.07
2018-01-16T10:31:46.189Z,3.90
2018-01-16T10:34:14.490Z,3.20
2018-01-16T10:36:42.017Z,4.03
2018-01-16T10:39:09.694Z,4.40
2018-01-16T10:41:37.251Z,4.60
2018-01-16T10:44:04.931Z,4.07
2018-01-16T10:46:33.276Z,4.12
2018-01-16T10:49:00.928Z,3.70
2018-01-16T10:51:28.457Z,4.20
2018-01-16T10:53:55.968Z,4.20
2018-01-16T10:56:23.525Z,4.20
2018-01-16T10:58:51.089Z,2.77
2018-01-16T11:01:19.089Z,3.10
2018-01-16T11:03:46.640Z,1.80
2018-01-16T11:06:14.180Z,2.50
2018-01-16T11:08:42.493Z,2.83
2018-01-16T11:11:10.043Z,3.20
2018-01-16T11:13:37.577Z,2.73
2018-01-16T11:16:05.156Z,4.43
2018-01-16T11:18:32.705Z,3.33
2018-01-16T11:21:01.000Z,3.53
2018-01-16T11:23:28.557Z,3.25
2018-01-16T11:25:56.092Z,4.27
2018-01-16T11:28:23.644Z,3.50
2018-01-16T11:30:51.309Z,4.00
2018-01-16T11:33:18.869Z,4.20
2018-01-16T11:35:46.382Z,4.07
2018-01-16T11:38:13.910Z,4.50
2018-01-16T11:40:42.356Z,3.90
2018-01-16T11:43:09.893Z,3.80
2018-01-16T11:45:38.179Z,4.50
2018-01-16T11:48:05.704Z,3.90
2018-01-16T11:50:33.996Z,3.07
2018-01-16T11:53:01.552Z,3.30
2018-01-16T11:55:29.105Z,3.50
2018-01-16T11:57:56.674Z,3.37
2018-01-16T12:00:24.194Z,3.17
2018-01-16T12:02:51.725Z,3.40
2018-01-16T12:05:19.331Z,2.70
2018-01-16T12:07:46.889Z,3.63
2018-01-16T12:10:14.423Z,2.30
2018-01-16T12:12:43.649Z,3.00
2018-01-16T12:15:11.294Z,2.87
2018-01-16T12:17:38.808Z,2.97
2018-01-16T12:20:06.342Z,1.73
2018-01-16T12:22:34.626Z,4.00
2018-01-16T12:25:02.189Z,2.43
2018-01-16T12:27:29.970Z,2.43
2018-01-16T12:29:57.581Z,2.80
2018-01-16T12:32:25.152Z,2.30
2018-01-16T12:34:52.930Z,1.93
2018-01-16T12:37:21.263Z,2.23
2018-01-16T12:39:49.653Z,2.63
2018-01-16T12:42:17.944Z,3.00
2018-01-16T12:44:45.503Z,3.40
2018-01-16T12:47:13.181Z,2.83
2018-01-16T12:49:40.825Z,1.90
2018-01-16T12:52:08.339Z,2.07
2018-01-16T12:54:36.769Z,1.80
2018-01-16T12:57:05.096Z,2.17
2018-01-16T12:59:32.642Z,2.10
2018-01-16T13:02:00.161Z,2.80
2018-01-16T13:04:27.688Z,1.77
2018-01-16T13:06:55.248Z,2.27
2018-01-16T13:09:22.817Z,2.57
2018-01-16T13:11:52.084Z,1.83
2018-01-16T13:14:20.976Z,2.30
2018-01-16T13:16:50.624Z,2.40
2018-01-16T13:19:18.276Z,2.20
2018-01-16T13:21:45.904Z,1.87
2018-01-16T13:24:14.218Z,2.60
2018-01-16T13:26:41.754Z,3.23
2018-01-16T13:29:09.405Z,3.13
2018-01-16T13:31:36.945Z,2.00
2018-01-16T13:34:04.469Z,2.73
2018-01-16T13:36:32.031Z,3.10
2018-01-16T13:39:00.528Z,3.20
2018-01-16T13:41:28.246Z,2.63
2018-01-16T13:43:55.818Z,3.03
2018-01-16T13:46:23.824Z,2.50
2018-01-16T13:48:52.001Z,2.20
2018-01-16T13:51:20.539Z,4.43
2018-01-16T13:53:48.072Z,2.97
2018-01-16T13:56:15.625Z,2.70
2018-01-16T13:58:43.962Z,1.93
2018-01-16T14:01:12.349Z,2.20
2018-01-16T14:03:40.797Z,2.43
2018-01-16T14:09:39.394Z,2.50
2018-01-16T14:12:06.908Z,2.37
2018-01-16T14:14:34.515Z,2.37
2018-01-16T14:17:02.032Z,2.42
2018-01-16T14:19:29.628Z,2.63
2018-01-16T14:21:57.125Z,2.40
2018-01-16T14:24:24.664Z,2.57
2018-01-16T14:26:53.260Z,2.87
2018-01-16T14:29:20.884Z,2.40
2018-01-16T14:31:48.437Z,3.92
2018-01-16T14:34:15.976Z,2.50
2018-01-16T14:36:43.505Z,3.07
2018-01-16T14:39:11.034Z,2.40
2018-01-16T14:41:39.325Z,2.77
2018-01-16T14:44:06.894Z,2.87
2018-01-16T14:46:34.458Z,3.50
2018-01-16T14:49:02.022Z,2.58
2018-01-16T14:51:30.353Z,2.70
2018-01-16T14:53:57.886Z,2.63
2018-01-16T14:56:25.419Z,3.40
2018-01-16T14:58:53.860Z,3.10
2018-01-16T15:01:21.509Z,3.03
2018-01-16T15:03:49.099Z,2.87
2018-01-16T15:06:16.641Z,3.00
2018-01-16T15:08:44.166Z,3.20
2018-01-16T15:11:11.714Z,2.87
2018-01-16T15:13:39.232Z,2.97
2018-01-16T15:16:07.487Z,3.03
2018-01-16T15:18:35.020Z,3.00
2018-01-16T15:21:03.352Z,2.90
2018-01-16T15:23:31.181Z,2.60
2018-01-16T15:25:58.744Z,2.60
2018-01-16T15:28:26.256Z,3.07
2018-01-16T15:30:54.455Z,2.60
2018-01-16T15:33:22.029Z,2.90
2018-01-16T15:35:50.449Z,2.90
2018-01-16T15:38:18.036Z,3.07
2018-01-16T15:40:45.631Z,3.33
2018-01-16T15:43:13.180Z,2.80
2018-01-16T15:45:40.693Z,2.50
2018-01-16T15:48:08.237Z,3.67
2018-01-16T15:50:35.757Z,2.87
2018-01-16T15:53:04.057Z,3.00
2018-01-16T15:55:31.717Z,2.87
2018-01-16T15:57:59.313Z,3.85
2018-01-16T16:00:27.623Z,3.10
2018-01-16T16:02:55.268Z,3.40
2018-01-16T16:05:22.788Z,2.90
2018-01-16T16:07:51.362Z,3.00
2018-01-16T16:10:19.768Z,4.60
2018-01-16T16:12:47.289Z,3.23
2018-01-16T16:15:14.828Z,2.70
2018-01-16T16:17:42.350Z,3.33
2018-01-16T16:20:09.888Z,3.00
2018-01-16T16:22:37.425Z,3.50
2018-01-16T16:25:05.721Z,2.70
2018-01-16T16:27:33.245Z,3.00
2018-01-16T16:30:00.776Z,2.87
2018-01-16T16:32:28.361Z,3.13
2018-01-16T16:34:55.907Z,2.80
2018-01-16T16:37:23.448Z,3.10
2018-01-16T16:39:52.226Z,3.45
2018-01-16T16:42:20.442Z,3.87
2018-01-16T16:44:47.996Z,3.50
2018-01-16T16:47:15.513Z,4.30
2018-01-16T16:49:43.037Z,3.30
2018-01-16T16:52:11.330Z,3.35
2018-01-16T16:54:39.611Z,2.85
2018-01-16T16:57:07.136Z,3.47
2018-01-16T16:59:35.418Z,2.63
2018-01-16T17:02:02.961Z,3.40
2018-01-16T17:04:30.477Z,3.70
2018-01-16T17:06:58.024Z,3.97
2018-01-16T17:09:26.300Z,3.93
2018-01-16T17:11:54.600Z,4.50
2018-01-16T17:14:22.122Z,3.87
2018-01-16T17:16:49.652Z,3.87
2018-01-16T17:19:17.172Z,2.37
2018-01-16T17:21:44.704Z,3.55
2018-01-16T17:24:12.217Z,3.53
2018-01-16T17:26:39.742Z,3.80
2018-01-16T17:29:07.309Z,4.20
2018-01-16T17:31:34.857Z,6.57
2018-01-16T17:34:02.369Z,4.80
2018-01-16T17:36:30.842Z,4.80
2018-01-16T17:38:58.365Z,5.70
2018-01-16T17:41:26.688Z,5.43
2018-01-16T17:43:54.200Z,5.60
2018-01-16T17:46:21.799Z,6.22
2018-01-16T17:48:49.417Z,6.07
2018-01-16T17:51:16.928Z,6.20
2018-01-16T17:53:44.462Z,5.77
2018-01-16T17:56:11.976Z,6.50
2018-01-16T17:58:39.509Z,7.10
2018-01-16T18:01:07.025Z,5.87
2018-01-16T18:03:34.556Z,6.50
2018-01-16T18:06:02.084Z,8.53
2018-01-16T18:08:29.616Z,7.30
2018-01-16T18:10:57.189Z,6.03
2018-01-16T18:13:24.724Z,6.50
2018-01-16T18:15:52.246Z,8.30
2018-01-16T18:18:20.565Z,5.23
2018-01-16T18:20:48.091Z,7.00
2018-01-16T18:23:15.633Z,7.30
2018-01-16T18:25:43.209Z,6.93
2018-01-16T18:28:11.712Z,6.87
2018-01-16T18:30:39.296Z,7.95
2018-01-16T18:33:06.818Z,10.07
2018-01-16T18:35:34.356Z,8.77
2018-01-16T18:38:01.903Z,8.90
2018-01-16T18:40:29.470Z,8.47
2018-01-16T18:42:57.004Z,6.80
2018-01-16T18:45:24.662Z,7.00
2018-01-16T18:47:52.480Z,9.93
2018-01-16T18:50:20.254Z,8.23
2018-01-16T18:52:47.808Z,6.70
2018-01-16T18:55:15.344Z,7.10
2018-01-16T18:57:42.919Z,6.83
2018-01-16T19:00:10.455Z,6.30
2018-01-16T19:02:38.000Z,8.97
2018-01-16T19:05:05.541Z,10.30
2018-01-16T19:07:33.058Z,8.40
2018-01-16T19:10:00.625Z,8.67
2018-01-16T19:12:28.294Z,7.70
2018-01-16T19:14:56.180Z,7.72
2018-01-16T19:17:23.701Z,6.83
2018-01-16T19:19:51.250Z,7.18
2018-01-16T19:22:20.117Z,7.40
2018-01-16T19:24:48.432Z,7.77
2018-01-16T19:27:16.041Z,6.80
2018-01-16T19:29:44.329Z,6.37
2018-01-16T19:32:11.876Z,6.30
2018-01-16T19:34:39.392Z,7.07
2018-01-16T19:37:07.698Z,8.70
2018-01-16T19:39:35.217Z,7.90
2018-01-16T19:42:02.761Z,8.93
2018-01-16T19:44:30.283Z,9.30
2018-01-16T19:46:59.422Z,8.30
2018-01-16T19:49:26.963Z,7.93
2018-01-16T19:51:54.638Z,8.33
2018-01-16T19:54:22.181Z,8.13
2018-01-16T19:56:49.720Z,7.50
2018-01-16T19:59:17.471Z,7.50
2018-01-16T20:01:45.006Z,6.97
2018-01-16T20:04:12.533Z,7.60
2018-01-16T20:06:40.060Z,7.70
2018-01-16T20:09:07.593Z,5.90
2018-01-16T20:11:35.136Z,6.20
2018-01-16T20:14:02.662Z,7.10
2018-01-16T20:16:30.968Z,7.47
2018-01-16T20:18:58.492Z,7.20
2018-01-16T20:21:26.016Z,8.47
2018-01-16T20:23:54.363Z,7.60
2018-01-16T20:26:22.924Z,6.77
2018-01-16T20:28:50.454Z,6.10
2018-01-16T20:31:18.004Z,7.00
2018-01-16T20:33:45.549Z,8.80
2018-01-16T20:36:13.065Z,6.73
2018-01-16T20:38:40.605Z,6.47
2018-01-16T20:41:08.188Z,6.67
2018-01-16T20:43:35.809Z,4.90
2018-01-16T20:46:03.331Z,4.30
2018-01-16T20:48:30.876Z,5.30
2018-01-16T20:50:59.321Z,4.80
2018-01-16T20:53:26.856Z,4.03
2018-01-16T20:55:54.390Z,5.93
2018-01-16T20:58:22.749Z,5.67
2018-01-16T21:00:50.351Z,5.90
2018-01-16T21:03:17.912Z,6.30
2018-01-16T21:05:45.440Z,6.10
2018-01-16T21:08:12.985Z,5.67
2018-01-16T21:10:40.515Z,5.30
2018-01-16T21:13:08.038Z,4.67
2018-01-16T21:15:35.586Z,5.53
2018-01-16T21:18:03.104Z,6.40
2018-01-16T21:20:31.400Z,6.43
2018-01-16T21:22:58.916Z,7.30
2018-01-16T21:25:27.213Z,7.70
2018-01-16T21:27:54.740Z,7.90
2018-01-16T21:30:22.290Z,7.47
2018-01-16T21:32:49.880Z,7.30
2018-01-16T21:35:17.509Z,8.20
2018-01-16T21:37:45.042Z,7.20
2018-01-16T21:40:12.576Z,8.57
2018-01-16T21:42:40.097Z,8.77
2018-01-16T21:45:07.645Z,8.07
2018-01-16T21:47:35.932Z,7.03
2018-01-16T21:50:03.450Z,8.23
2018-01-16T21:52:31.742Z,7.63
2018-01-16T21:54:59.267Z,9.20
2018-01-16T21:57:26.822Z,9.23
2018-01-16T21:59:54.362Z,7.90
2018-01-16T22:02:21.930Z,8.50
2018-01-16T22:04:49.475Z,8.13
2018-01-16T22:07:17.017Z,8.68
2018-01-16T22:09:44.548Z,7.30
2018-01-16T22:12:12.085Z,7.80
2018-01-16T22:14:39.605Z,8.87
2018-01-16T22:17:07.897Z,7.57
2018-01-16T22:19:35.471Z,8.63
2018-01-16T22:22:03.010Z,9.67
2018-01-16T22:24:30.527Z,7.63
2018-01-16T22:26:58.081Z,7.57
2018-01-16T22:29:25.620Z,8.50
2018-01-16T22:31:53.128Z,8.20
2018-01-16T22:34:20.730Z,8.20
2018-01-16T22:36:48.269Z,6.73
2018-01-16T22:39:15.817Z,7.80
2018-01-16T22:41:43.337Z,6.60
2018-01-16T22:44:10.877Z,7.73
2018-01-16T22:46:38.410Z,7.37
2018-01-16T22:49:05.947Z,7.30
2018-01-16T22:51:33.500Z,8.27
2018-01-16T22:54:01.056Z,8.60
2018-01-16T22:56:28.574Z,7.13
2018-01-16T22:58:56.873Z,7.20
2018-01-16T23:01:24.379Z,8.90
2018-01-16T23:03:52.078Z,6.63
2018-01-16T23:06:19.663Z,7.53
2018-01-16T23:08:47.960Z,7.40
2018-01-16T23:11:15.493Z,7.97
2018-01-16T23:13:43.021Z,8.63
2018-01-16T23:16:12.311Z,7.67
2018-01-16T23:18:40.597Z,8.27
2018-01-16T23:21:08.128Z,7.20
2018-01-16T23:23:36.209Z,8.30
2018-01-16T23:26:03.750Z,7.40
2018-01-16T23:28:31.270Z,8.07
2018-01-16T23:30:58.951Z,7.70
2018-01-16T23:33:26.464Z,7.73
2018-01-16T23:35:54.070Z,7.27
2018-01-16T23:38:21.605Z,8.20
2018-01-16T23:40:49.164Z,7.53
2018-01-16T23:43:16.709Z,8.70
2018-01-16T23:45:44.996Z,6.97
2018-01-16T23:48:12.544Z,8.70
2018-01-16T23:50:40.125Z,8.35
2018-01-16T23:53:08.385Z,9.00
2018-01-16T23:55:35.908Z,7.77
2018-01-16T23:58:04.373Z,9.23
